Severy, Kansas
Current Conditions -  °F | °C
As of 9:15 PM on Saturday 20 Dec 2014 (Local Time) from KEQA Reporting Station
Overcast Overcast  
Wind Chill: 36°   Ceiling: 1800
Heat Index: 43°   Visibility: 10mi
Dew Point: 36°   Wind: 14mph
Humidity: 76%   Direction: 220°SW
Pressure: 30.11"   Gusts: 17mph
Location:  37.62°N, 96.23°W
Report Text: KEQA 210315Z AUTO 22012G15KT 10SM OVC018 06/02 A3011 RMK AO2
Loading
Personal Weather Stations






























Interactive Weather Map New forecast layout! Learn more

10-Day Weather Forecast

Advertisements
Track Severe Weather on mobile